Latest Weather Observations for Marble Bar

IDW60801

Issued at 5:05 pm WST Friday 31 October 2014 (issued every 30 minutes, with the page automatically refreshed every 10 minutes)

About weather observations | Map of weather stations | Latest weather observations for WA | Other Formats
Station Details ID: 004106 Name: MARBLE BAR Lat: -21.18 Lon: 119.75 Height: 182.3 m
Data from the previous 72 hours. | See also: Recent months at Marble Bar
Date/Time
WST
Temp
°C
App
Temp
°C
Dew
Point
Rel
Hum
%
Delta-T
°C
Wind Press
QNH
hPa
Press
MSL
hPa
Rain
since 9 am
mm
Dir
 
Spd
km/h
Gust
km/h
Spd
kts
Gust
kts
31/05:00pm 39.7 35.2 2.4 10 19.9 SW 15 20 8 11 1006.4 1005.1 0.0
31/04:30pm 40.9 37.5 1.8 9 20.8 SW 9 22 5 12 1006.4 1005.1 0.0
31/04:00pm 39.7 35.2 2.4 10 19.9 SSW 15 26 8 14 1006.5 1005.2 0.0
31/03:30pm 40.3 36.4 1.4 9 20.4 SW 11 26 6 14 1006.5 1005.2 0.0
31/03:00pm 40.5 37.4 1.5 9 20.6 S 7 11 4 6 1006.7 1005.4 0.0
31/02:30pm 41.2 37.1 2.0 9 20.9 SSW 13 26 7 14 1006.9 1005.6 0.0
31/02:00pm 41.2 37.8 2.0 9 20.9 WSW 9 19 5 10 1007.3 1006.0 0.0
31/01:30pm 40.2 35.1 2.8 10 20.0 SSW 19 24 10 13 1007.9 1006.6 0.0
31/01:00pm 40.5 35.5 1.5 9 20.6 SSE 17 26 9 14 1008.2 1006.9 0.0
31/12:30pm 39.9 34.9 1.1 9 20.2 S 17 32 9 17 1008.5 1007.2 0.0
31/12:00pm 39.3 34.2 0.6 9 20.0 SSE 17 28 9 15 1008.9 1007.6 0.0
31/11:30am 40.1 36.2 1.2 9 20.3 SSE 11 26 6 14 1009.2 1007.9 0.0
31/11:00am 39.5 34.4 0.8 9 20.1 S 17 28 9 15 1009.5 1008.3 0.0
31/10:30am 39.4 33.7 0.7 9 20.0 S 20 32 11 17 1010.0 1008.8 0.0
31/10:00am 38.8 33.1 0.3 9 19.7 S 20 32 11 17 1010.3 1009.1 0.0
31/09:30am 37.8 32.1 -0.5 9 19.2 S 19 30 10 16 1010.4 1009.2 0.0
31/09:00am 37.3 32.4 1.9 11 18.4 SSE 17 26 9 14 1010.5 1009.3 0.0
31/08:30am 36.4 31.2 2.5 12 17.7 SSE 19 28 10 15 1010.6 1009.4 0.0
31/08:00am 34.5 29.6 2.1 13 16.6 SSE 17 22 9 12 1010.6 1009.4 0.0
31/07:30am 34.5 30.5 3.1 14 16.4 SSE 13 24 7 13 1010.4 1009.2 0.0
31/07:00am 32.7 30.0 3.6 16 15.2 SSE 7 9 4 5 1010.4 1009.2 0.0
31/06:30am 30.4 28.4 4.2 19 13.6 SSE 4 6 2 3 1010.1 1008.9 0.0
31/06:00am 28.1 25.7 4.4 22 12.2 S 6 7 3 4 1009.7 1008.5 0.0
31/05:30am 28.4 25.8 4.0 21 12.5 S 7 9 4 5 1009.3 1008.1 0.0
31/05:00am 28.8 26.1 3.6 20 12.8 S 7 13 4 7 1009.0 1007.7 0.0
31/04:30am 28.9 26.2 3.7 20 12.8 S 7 9 4 5 1008.5 1007.2 0.0
31/04:00am 30.7 26.9 3.7 18 13.9 SSE 13 15 7 8 1008.2 1006.9 0.0
31/03:30am 31.4 27.3 4.2 18 14.2 SSE 15 20 8 11 1008.0 1006.7 0.0
31/03:00am 31.5 27.8 4.3 18 14.3 S 13 20 7 11 1007.9 1006.6 0.0
31/02:30am 31.1 28.5 6.2 21 13.4 S 9 17 5 9 1007.7 1006.4 0.0
31/02:00am 31.4 28.6 7.1 22 13.3 S 11 15 6 8 1007.7 1006.4 0.0
31/01:30am 32.5 29.4 7.4 21 13.9 S 13 20 7 11 1007.8 1006.5 0.0
31/01:00am 32.1 29.1 7.7 22 13.6 S 13 17 7 9 1007.9 1006.6 0.0
31/12:30am 33.5 30.2 8.2 21 14.2 S 15 20 8 11 1007.9 1006.6 0.0
31/12:00am 33.9 29.8 7.8 20 14.7 SSW 19 24 10 13 1007.9 1006.6 0.0
 
Date/Time
WST
Temp
°C
App
Temp
°C
Dew
Point
Rel
Hum
%
Delta-T
°C
Wind Press
QNH
hPa
Press
MSL
hPa
Rain
since 9 am
mm
Dir
 
Spd
km/h
Gust
km/h
Spd
kts
Gust
kts
30/11:30pm 33.8 31.4 7.0 19 14.8 S 9 15 5 8 1008.2 1006.9 0.0
30/11:00pm 34.5 31.3 6.7 18 15.4 SSW 13 17 7 9 1008.4 1007.1 0.0
30/10:30pm 35.1 31.0 6.4 17 15.8 SSW 17 24 9 13 1008.7 1007.4 0.0
30/10:00pm 35.4 30.8 5.8 16 16.2 SSW 19 30 10 16 1008.9 1007.6 0.0
30/09:30pm 36.0 31.1 5.3 15 16.7 SSW 20 28 11 15 1008.8 1007.5 0.0
30/09:00pm 36.2 32.0 5.5 15 16.8 SSW 17 26 9 14 1008.7 1007.4 0.0
30/08:30pm 36.8 31.9 4.9 14 17.3 SW 20 30 11 16 1008.5 1007.2 0.0
30/08:00pm 32.2 30.7 4.9 18 14.5 SSW 2 6 1 3 1008.3 1007.0 0.0
30/07:30pm 33.3 31.6 4.1 16 15.4 SSW 2 4 1 2 1008.1 1006.8 0.0
30/07:00pm 35.5 33.2 2.9 13 17.1 SSW 4 6 2 3 1007.8 1006.5 0.0
30/06:30pm 37.3 34.5 3.1 12 18.1 SSW 7 9 4 5 1007.4 1006.1 0.0
30/06:00pm 38.5 35.4 1.5 10 19.3 SSW 7 11 4 6 1007.3 1006.0 0.0
30/05:30pm 39.5 37.1 2.2 10 19.7 SW 4 6 2 3 1007.1 1005.8 0.0
30/05:00pm 40.1 37.2 1.2 9 20.4 SSW 6 9 3 5 1007.0 1005.7 0.0
30/04:30pm 40.3 37.2 1.4 9 20.4 SSW 7 15 4 8 1006.9 1005.6 0.0
30/04:00pm 40.4 36.9 1.4 9 20.5 S 9 13 5 7 1006.9 1005.6 0.0
30/03:30pm 40.7 37.8 1.7 9 20.6 SSE 6 9 3 5 1007.0 1005.7 0.0
30/03:00pm 40.5 37.4 1.5 9 20.6 WSW 7 13 4 7 1007.1 1005.8 0.0
30/02:30pm 40.8 37.4 1.7 9 20.7 S 9 20 5 11 1007.3 1006.0 0.0
30/02:00pm 41.6 37.5 2.3 9 21.1 SE 13 22 7 12 1007.5 1006.2 0.0
30/01:30pm 41.6 38.3 2.3 9 21.0 S 9 22 5 12 1007.7 1006.4 0.0
30/01:00pm 41.0 37.2 1.9 9 20.8 SW 11 19 6 10 1008.2 1006.9 0.0
30/12:30pm 42.3 37.2 2.8 9 21.4 S 19 33 10 18 1008.6 1007.3 0.0
30/12:00pm 41.9 38.2 2.6 9 21.2 S 11 24 6 13 1009.1 1007.8 0.0
30/11:30am 41.1 35.6 2.0 9 20.8 S 20 24 11 13 1009.4 1008.2 0.0
30/11:00am 40.5 34.9 1.5 9 20.5 S 20 33 11 18 1009.8 1008.6 0.0
30/10:30am 40.1 34.9 2.7 10 20.0 S 19 32 10 17 1010.2 1009.0 0.0
30/10:00am 39.9 34.7 2.5 10 19.9 S 19 32 10 17 1010.7 1009.5 0.0
30/09:30am 39.4 34.8 3.5 11 19.4 SSE 17 30 9 16 1011.1 1009.9 0.0
30/09:00am 38.0 33.0 3.7 12 18.4 SSE 19 28 10 15 1011.4 1010.2 0.0
30/08:30am 37.1 32.8 5.2 14 17.4 SSE 17 26 9 14 1011.4 1010.2 0.0
30/08:00am 35.0 30.7 5.4 16 16.1 S 17 22 9 12 1011.4 1010.2 0.0
30/07:30am 32.8 29.8 6.2 19 14.4 S 11 17 6 9 1011.3 1010.1 0.0
30/07:00am 30.0 30.2 10.5 30 11.2 CALM 0 6 0 3 1011.2 1010.0 0.0
30/06:30am 28.1 27.6 10.8 34 9.9 SSE 4 9 2 5 1011.1 1009.9 0.0
30/06:00am 27.2 27.1 10.8 36 9.4 SSE 2 7 1 4 1010.9 1009.7 0.0
30/05:30am 27.9 27.1 11.0 35 9.7 S 6 9 3 5 1010.5 1009.3 0.0
30/05:00am 28.6 27.3 11.2 34 10.1 S 9 13 5 7 1010.2 1009.0 0.0
30/04:30am 28.5 27.4 12.0 36 9.6 S 9 13 5 7 1009.9 1008.7 0.0
30/04:00am 28.8 27.8 12.2 35 9.8 S 9 13 5 7 1009.7 1008.5 0.0
30/03:30am 28.5 28.3 13.6 40 8.9 S 7 9 4 5 1009.6 1008.4 0.0
30/03:00am 28.7 28.6 13.8 40 9.0 S 7 11 4 6 1009.5 1008.3 0.0
30/02:30am 29.4 28.8 12.3 34 10.1 S 7 9 4 5 1009.4 1008.2 0.0
30/02:00am 30.0 29.0 11.0 31 11.0 S 7 11 4 6 1009.4 1008.2 0.0
30/01:30am 30.6 28.9 11.1 30 11.3 SW 11 17 6 9 1009.5 1008.3 0.0
30/01:00am 29.4 28.0 9.0 28 11.4 SW 6 13 3 7 1009.7 1008.5 0.0
30/12:30am 29.8 29.4 9.9 29 11.3 S 2 4 1 2 1010.1 1008.9 0.0
30/12:00am 30.8 29.7 10.7 29 11.6 S 7 11 4 6 1010.3 1009.1 0.0
 
Date/Time
WST
Temp
°C
App
Temp
°C
Dew
Point
Rel
Hum
%
Delta-T
°C
Wind Press
QNH
hPa
Press
MSL
hPa
Rain
since 9 am
mm
Dir
 
Spd
km/h
Gust
km/h
Spd
kts
Gust
kts
29/11:30pm 30.4 30.6 11.9 32 10.9 ESE 2 6 1 3 1010.6 1009.4 0.0
29/11:00pm 31.2 31.0 13.0 33 10.9 NNE 6 9 3 5 1010.8 1009.6 0.0
29/10:30pm 31.3 30.4 13.6 34 10.7 NNE 11 15 6 8 1010.9 1009.7 0.0
29/10:00pm 31.9 31.3 13.6 32 11.1 NNE 9 11 5 6 1011.1 1009.9 0.0
29/09:30pm 32.3 32.0 14.4 33 11.0 N 9 11 5 6 1011.0 1009.8 0.0
29/09:00pm 32.8 32.7 14.9 34 11.1 NW 9 13 5 7 1010.9 1009.7 0.0
29/08:30pm 33.9 33.4 13.9 30 12.3 W 9 20 5 11 1010.8 1009.6 0.0
29/08:00pm 34.8 33.3 13.0 26 13.3 WSW 13 20 7 11 1010.5 1009.3 0.0
29/07:30pm 35.3 34.1 14.0 28 13.2 WSW 13 22 7 12 1010.2 1009.0 0.0
29/07:00pm 35.8 33.8 13.9 27 13.6 WSW 17 28 9 15 1009.9 1008.7 0.0
29/06:30pm 36.6 34.9 14.6 27 13.8 W 17 26 9 14 1009.5 1008.3 0.0
29/06:00pm 37.4 35.3 14.7 26 14.3 W 19 28 10 15 1009.3 1008.1 0.0
29/05:30pm 38.1 34.8 12.7 22 15.6 WSW 22 33 12 18 1008.9 1007.6 0.0
29/05:00pm 40.3 35.9 6.6 13 19.1 NNW 19 24 10 13 1008.6 1007.3 0.0
29/04:30pm 41.0 35.6 4.7 11 20.1 NW 22 30 12 16 1008.4 1007.1 0.0
29/04:00pm 41.7 38.9 5.3 11 20.4 W 9 20 5 11 1008.5 1007.2 0.0
29/03:30pm 42.3 38.6 4.3 10 21.0 WSW 13 28 7 15 1008.5 1007.2 0.0
29/03:00pm 41.5 37.3 3.7 10 20.7 WSW 15 32 8 17 1008.6 1007.3 0.0
29/02:30pm 41.9 37.4 4.0 10 20.8 WSW 17 28 9 15 1008.8 1007.5 0.0
29/02:00pm 42.0 38.0 2.6 9 21.3 WSW 13 20 7 11 1009.1 1007.8 0.0
29/01:30pm 41.6 37.7 5.2 11 20.3 SW 15 26 8 14 1009.5 1008.3 0.0
29/01:00pm 41.7 38.5 5.3 11 20.4 W 11 15 6 8 1009.8 1008.6 0.0
29/12:30pm 41.0 38.4 6.0 12 19.7 W 9 19 5 10 1010.3 1009.1 0.0
29/12:00pm 39.4 37.0 7.0 14 18.4 NW 9 17 5 9 1010.7 1009.5 0.0
29/11:30am 38.8 36.8 8.5 16 17.5 W 9 24 5 13 1011.1 1009.9 0.0
29/11:00am 38.7 37.0 8.4 16 17.5 W 7 13 4 7 1011.4 1010.2 0.0
29/10:30am 37.1 35.9 10.4 20 15.8 N 7 11 4 6 1011.8 1010.6 0.0
29/10:00am 36.3 35.2 10.5 21 15.2 W 7 15 4 8 1012.2 1010.9 0.0
29/09:30am 34.9 34.5 12.5 25 13.5 W 6 15 3 8 1012.4 1011.1 0.0
29/09:00am 33.6 34.1 15.6 34 11.3 WNW 7 13 4 7 1012.7 1011.4 0.0
29/08:30am 32.0 33.8 17.5 42 9.3 N 4 7 2 4 1012.5 1011.2 0.0
29/08:00am 30.1 32.7 18.5 49 7.5 NE 2 7 1 4 1012.5 1011.2 0.0
29/07:30am 28.5 31.1 20.0 60 5.6 NNW 6 7 3 4 1012.7 1011.4 0.0
29/07:00am 26.7 30.1 20.1 67 4.3 NNW 2 6 1 3 1012.5 1011.2 0.0
29/06:30am 25.1 28.0 19.9 73 3.4 SSE 4 6 2 3 1012.7 1011.4 0.0
29/06:00am 23.4 26.7 19.1 77 2.8 CALM 0 0 0 0 1012.3 1011.0 0.0
29/05:30am 23.3 26.0 19.5 79 2.4 E 4 7 2 4 1012.2 1010.9 0.0
29/05:00am 23.6 27.0 19.3 77 2.8 CALM 0 4 0 2 1012.1 1010.8 0.0
29/04:30am 24.8 27.3 19.8 74 3.3 ENE 6 7 3 4 1012.1 1010.8 0.0
29/04:00am 24.8 28.4 19.8 74 3.3 CALM 0 0 0 0 1012.2 1010.9 0.0
29/03:30am 25.3 29.0 19.9 72 3.5 CALM 0 0 0 0 1012.5 1011.2 0.0
29/03:00am 25.9 28.6 20.2 71 3.7 S 6 7 3 4 1012.1 1010.8 0.0
29/02:30am 25.7 28.3 20.0 71 3.7 S 6 9 3 5 1012.0 1010.7 0.0
29/02:00am 25.0 28.1 19.4 71 3.6 S 2 4 1 2 1012.1 1010.8 0.0
29/01:30am 25.7 29.2 19.6 69 4.0 CALM 0 0 0 0 1012.3 1011.0 0.0
29/01:00am 26.1 29.8 20.0 69 4.0 CALM 0 0 0 0 1012.1 1010.8 0.0
29/12:30am 26.7 30.1 20.1 67 4.3 NW 2 4 1 2 1012.3 1011.0 0.0
29/12:00am 27.3 30.3 20.1 64 4.7 N 4 6 2 3 1012.7 1011.4 0.0
 
Date/Time
WST
Temp
°C
App
Temp
°C
Dew
Point
Rel
Hum
%
Delta-T
°C
Wind Press
QNH
hPa
Press
MSL
hPa
Rain
since 9 am
mm
Dir
 
Spd
km/h
Gust
km/h
Spd
kts
Gust
kts
28/11:30pm 28.0 30.9 20.6 64 4.9 NE 6 7 3 4 1013.1 1011.8 0.0
28/11:00pm 28.2 31.0 20.5 63 5.1 NNE 6 9 3 5 1013.2 1011.9 0.0
28/10:30pm 28.7 31.3 20.4 60 5.5 NNE 7 13 4 7 1013.3 1012.0 0.0
28/10:00pm 29.5 31.2 20.1 57 6.2 ENE 11 17 6 9 1013.6 1012.3 0.0
28/09:30pm 28.7 31.2 19.9 59 5.8 E 6 17 3 9 1013.3 1012.0 0.0
28/09:00pm 29.4 31.4 20.0 57 6.2 WSW 9 13 5 7 1011.8 1010.6 0.0
28/08:30pm 30.0 31.6 19.1 52 7.1 W 9 13 5 7 1012.1 1010.8 0.0
28/08:00pm 30.6 32.2 19.9 52 7.1 W 11 15 6 8 1011.4 1010.2 0.0
28/07:30pm 31.5 33.0 18.8 46 8.3 W 9 13 5 7 1010.9 1009.7 0.0
28/07:00pm 32.3 32.4 17.4 41 9.6 W 13 19 7 10 1010.3 1009.1 0.0
28/06:30pm 32.6 33.2 17.6 40 9.7 NW 11 17 6 9 1010.1 1008.9 0.0
28/06:00pm 33.6 33.1 16.9 37 10.7 NNW 15 22 8 12 1009.7 1008.5 0.0
28/05:30pm 34.7 32.9 16.1 33 11.8 NNW 20 30 11 16 1009.2 1007.9 0.0

Other Formats:

Comma delimited format used in spreadsheet applications
http://www.bom.gov.au/fwo/IDW60801/IDW60801.95317.axf

JavaScript Object Notation format (JSON) in row-major order
http://www.bom.gov.au/fwo/IDW60801/IDW60801.95317.json